Time;durP1;ratioP1;P1;durP2;ratioP2;P2;SDS_P1;SDS_P2;PMS_P1;PMS_P2;Temp;Humidity;BMP_temperature;BMP_pressure;BME280_temperature;BME280_humidity;BME280_pressure;Samples;Min_cycle;Max_cycle;Signal;HPM_P1;HPM_P2
2021/10/12 00:01:28;;;;;;;32.83;18.70;;;9.90;99.90;;;;;;4974196;28;20026;-50
2021/10/12 00:03:54;;;;;;;28.38;16.92;;;9.90;99.90;;;;;;4973941;28;20062;-49
2021/10/12 00:06:20;;;;;;;26.08;15.05;;;9.90;99.90;;;;;;4974061;28;20027;-48
2021/10/12 00:08:45;;;;;;;26.55;14.45;;;9.90;99.90;;;;;;4974159;28;20031;-47
2021/10/12 00:11:11;;;;;;;28.23;17.67;;;9.90;99.90;;;;;;4972777;28;20019;-48
2021/10/12 00:13:36;;;;;;;25.73;15.63;;;9.90;99.90;;;;;;4973964;28;20054;-48
2021/10/12 00:16:03;;;;;;;27.27;17.75;;;9.90;99.90;;;;;;4972651;28;20125;-48
2021/10/12 00:18:29;;;;;;;31.48;17.60;;;10.00;99.90;;;;;;4973451;28;20034;-49
2021/10/12 00:20:54;;;;;;;29.63;16.45;;;10.00;99.90;;;;;;4973623;28;20035;-51
2021/10/12 00:23:20;;;;;;;27.83;18.02;;;10.00;99.90;;;;;;4973861;28;20023;-49
2021/10/12 00:25:45;;;;;;;38.58;21.77;;;9.90;99.90;;;;;;4973925;28;20059;-49
2021/10/12 00:28:11;;;;;;;32.67;22.77;;;9.90;99.90;;;;;;4973577;28;20476;-47
2021/10/12 00:30:37;;;;;;;40.45;23.08;;;9.80;99.90;;;;;;4972345;28;20161;-48
2021/10/12 00:33:06;;;;;;;35.05;24.52;;;9.70;99.90;;;;;;4973615;28;20035;-50
2021/10/12 00:35:31;;;;;;;40.63;24.70;;;9.60;99.90;;;;;;4973679;28;20031;-47
2021/10/12 00:37:57;;;;;;;42.65;25.60;;;9.50;99.90;;;;;;4973222;28;20035;-48
2021/10/12 00:40:23;;;;;;;34.85;22.30;;;9.50;99.90;;;;;;4973145;28;20094;-47
2021/10/12 00:42:48;;;;;;;41.28;23.55;;;9.40;99.90;;;;;;4973624;28;20166;-48
2021/10/12 00:45:15;;;;;;;28.05;19.15;;;9.50;99.90;;;;;;4973394;28;20031;-47
2021/10/12 00:48:01;;;;;;;29.63;19.20;;;9.50;99.90;;;;;;4972032;28;20022;-47
2021/10/12 00:50:27;;;;;;;27.88;18.08;;;9.50;99.90;;;;;;4973376;28;20023;-47
2021/10/12 00:52:53;;;;;;;41.20;21.23;;;9.50;99.90;;;;;;4973234;28;20050;-48
2021/10/12 00:55:19;;;;;;;27.55;19.20;;;9.60;99.90;;;;;;4973304;28;20031;-49
2021/10/12 00:57:45;;;;;;;30.25;19.52;;;9.60;99.90;;;;;;4972801;28;20027;-49
2021/10/12 01:00:11;;;;;;;34.05;20.15;;;9.60;99.90;;;;;;4973263;28;20105;-52
2021/10/12 01:02:37;;;;;;;37.65;22.90;;;9.60;99.90;;;;;;4973422;28;20034;-49
2021/10/12 01:05:03;;;;;;;35.28;22.38;;;9.60;99.90;;;;;;4972848;28;20026;-48
2021/10/12 01:07:29;;;;;;;37.00;24.00;;;9.60;99.90;;;;;;4972772;28;20023;-47
2021/10/12 01:09:55;;;;;;;36.88;23.23;;;9.50;99.90;;;;;;4973180;28;20067;-48
2021/10/12 01:12:20;;;;;;;38.45;23.17;;;9.50;99.90;;;;;;4972462;28;20023;-47
2021/10/12 01:14:46;;;;;;;34.58;22.83;;;9.40;99.90;;;;;;4971471;28;20031;-49
2021/10/12 01:17:11;;;;;;;32.13;21.42;;;9.40;99.90;;;;;;4972573;28;20027;-48
2021/10/12 01:19:37;;;;;;;35.20;21.00;;;9.40;99.90;;;;;;4972720;28;20026;-47
2021/10/12 01:22:03;;;;;;;31.98;18.98;;;9.40;99.90;;;;;;4972622;28;20449;-49
2021/10/12 01:24:28;;;;;;;35.20;20.85;;;9.40;99.90;;;;;;4972618;28;20113;-48
2021/10/12 01:26:54;;;;;;;35.03;21.00;;;9.50;99.90;;;;;;4972265;28;20505;-47
2021/10/12 01:29:20;;;;;;;31.48;20.33;;;9.50;99.90;;;;;;4972648;28;20106;-50
2021/10/12 01:31:45;;;;;;;34.75;21.65;;;9.60;99.90;;;;;;4972430;28;20402;-49
2021/10/12 01:34:13;;;;;;;32.85;21.25;;;9.50;99.90;;;;;;4972476;28;20038;-49
2021/10/12 01:36:38;;;;;;;30.77;20.83;;;9.40;99.90;;;;;;4972189;28;20403;-47
2021/10/12 01:39:04;;;;;;;35.10;21.50;;;9.40;99.90;;;;;;4972374;28;20037;-50
2021/10/12 01:41:29;;;;;;;36.35;19.70;;;9.40;99.90;;;;;;4972242;28;20480;-51
2021/10/12 01:43:56;;;;;;;27.80;19.92;;;9.50;99.90;;;;;;4972258;28;20315;-50
2021/10/12 01:46:22;;;;;;;31.65;20.17;;;9.50;99.90;;;;;;4970721;28;20027;-48
2021/10/12 01:48:48;;;;;;;25.95;17.02;;;9.50;99.90;;;;;;4972328;28;20082;-49
2021/10/12 01:51:13;;;;;;;26.60;18.27;;;9.40;99.90;;;;;;4971194;28;20416;-48
2021/10/12 01:53:39;;;;;;;31.15;19.70;;;9.40;99.90;;;;;;4971652;28;20034;-50
2021/10/12 01:56:05;;;;;;;32.97;19.08;;;9.30;99.90;;;;;;4972107;28;20023;-50
2021/10/12 01:58:31;;;;;;;28.73;17.02;;;9.40;99.90;;;;;;4971989;28;20384;-49
2021/10/12 02:00:57;;;;;;;33.83;19.60;;;9.40;99.90;;;;;;4972284;28;20023;-48
2021/10/12 02:03:22;;;;;;;32.05;20.00;;;9.40;99.90;;;;;;4972030;28;20026;-47
2021/10/12 02:05:48;;;;;;;30.85;19.48;;;9.40;99.90;;;;;;4972214;28;20069;-50
2021/10/12 02:08:14;;;;;;;30.25;18.40;;;9.30;99.90;;;;;;4971768;28;20030;-47
2021/10/12 02:10:39;;;;;;;39.10;20.65;;;9.50;99.90;;;;;;4971819;28;20035;-46
2021/10/12 02:13:05;;;;;;;29.25;17.02;;;9.50;99.90;;;;;;4971683;28;20104;-49
2021/10/12 02:15:30;;;;;;;30.88;18.38;;;9.40;99.90;;;;;;4972088;28;20027;-49
2021/10/12 02:17:56;;;;;;;21.85;15.30;;;9.50;99.90;;;;;;4971582;28;20030;-47
2021/10/12 02:20:21;;;;;;;28.02;15.48;;;9.50;99.90;;;;;;4971717;28;20433;-47
2021/10/12 02:22:47;;;;;;;29.27;14.30;;;9.50;99.90;;;;;;4971866;28;20023;-47
2021/10/12 02:25:13;;;;;;;20.80;14.68;;;9.50;99.90;;;;;;4971785;28;20031;-49
2021/10/12 02:27:39;;;;;;;23.52;14.27;;;9.50;99.90;;;;;;4971712;28;20027;-48
2021/10/12 02:30:06;;;;;;;21.15;13.85;;;9.50;99.90;;;;;;4971686;28;20098;-47
2021/10/12 02:32:32;;;;;;;24.25;12.50;;;9.60;99.90;;;;;;4971802;28;20532;-48
2021/10/12 02:34:58;;;;;;;20.05;11.75;;;9.60;99.90;;;;;;4971713;28;20105;-48
2021/10/12 02:37:24;;;;;;;25.55;12.52;;;9.60;99.90;;;;;;4970413;28;20078;-49
2021/10/12 02:39:50;;;;;;;18.52;11.73;;;9.60;99.90;;;;;;4971783;28;20432;-48
2021/10/12 02:42:15;;;;;;;26.50;11.57;;;9.70;99.90;;;;;;4972029;28;20107;-47
2021/10/12 02:44:41;;;;;;;25.42;11.68;;;9.70;99.90;;;;;;4971611;28;20023;-47
2021/10/12 02:47:07;;;;;;;18.38;11.52;;;9.80;99.90;;;;;;4971499;28;20027;-51
2021/10/12 02:49:32;;;;;;;21.20;12.20;;;9.80;99.90;;;;;;4971662;28;20500;-47
2021/10/12 02:51:58;;;;;;;26.05;11.95;;;9.90;99.90;;;;;;4971646;28;20029;-47
2021/10/12 02:54:23;;;;;;;17.70;11.25;;;9.90;99.90;;;;;;4971475;28;20046;-47
2021/10/12 02:56:49;;;;;;;20.20;12.10;;;9.80;99.90;;;;;;4971309;28;20023;-50
2021/10/12 02:59:14;;;;;;;25.40;12.65;;;9.80;99.90;;;;;;4971700;28;20114;-47
2021/10/12 03:01:40;;;;;;;18.17;11.60;;;9.80;99.90;;;;;;4971662;28;20074;-48
2021/10/12 03:04:05;;;;;;;15.35;11.68;;;9.80;99.90;;;;;;4973468;28;20473;-47
2021/10/12 03:06:31;;;;;;;20.60;12.02;;;9.90;99.90;;;;;;4975083;28;20029;-49
2021/10/12 03:08:56;;;;;;;17.50;10.80;;;9.80;99.90;;;;;;4973953;28;20022;-47
2021/10/12 03:11:22;;;;;;;17.75;12.43;;;9.80;99.90;;;;;;4975238;28;20015;-49
2021/10/12 03:13:47;;;;;;;22.00;12.80;;;9.80;99.90;;;;;;4974696;28;20511;-46
2021/10/12 03:16:13;;;;;;;22.17;13.10;;;9.90;99.90;;;;;;4974825;28;20031;-47
2021/10/12 03:18:38;;;;;;;16.67;10.82;;;9.80;99.90;;;;;;4975268;28;20431;-47
2021/10/12 03:21:05;;;;;;;20.77;13.35;;;9.80;99.90;;;;;;4974813;28;20504;-48
2021/10/12 03:23:31;;;;;;;22.67;13.75;;;9.90;99.90;;;;;;4975269;28;20059;-47
2021/10/12 03:25:57;;;;;;;19.05;12.07;;;9.80;99.90;;;;;;4974964;28;20061;-48
2021/10/12 03:28:23;;;;;;;17.23;12.15;;;9.80;99.90;;;;;;4974552;28;20023;-49
2021/10/12 03:30:48;;;;;;;18.85;13.35;;;9.80;99.90;;;;;;4974854;28;20042;-49
2021/10/12 03:33:14;;;;;;;20.13;12.43;;;9.70;99.90;;;;;;4974687;28;20396;-47
2021/10/12 03:35:46;;;;;;;21.58;12.60;;;9.70;99.90;;;;;;4974627;28;20033;-51
2021/10/12 03:38:12;;;;;;;25.42;11.95;;;9.80;99.90;;;;;;4974282;28;20035;-49
2021/10/12 03:40:38;;;;;;;20.17;12.05;;;9.80;99.90;;;;;;4974604;28;20372;-47
2021/10/12 03:43:03;;;;;;;24.00;13.27;;;9.80;99.90;;;;;;4974505;28;20034;-47
2021/10/12 03:45:29;;;;;;;21.30;12.60;;;9.90;99.90;;;;;;4974366;28;20030;-48
2021/10/12 03:47:54;;;;;;;24.00;13.98;;;9.90;99.90;;;;;;4974218;28;20027;-50
2021/10/12 03:50:20;;;;;;;20.05;13.68;;;9.90;99.90;;;;;;4973004;28;20030;-51
2021/10/12 03:52:45;;;;;;;23.60;14.95;;;9.90;99.90;;;;;;4974216;28;20113;-47
2021/10/12 03:55:11;;;;;;;22.20;15.10;;;9.80;99.90;;;;;;4974304;28;20042;-46
2021/10/12 03:57:37;;;;;;;23.48;15.75;;;9.80;99.90;;;;;;4974485;28;20035;-47
2021/10/12 04:00:04;;;;;;;23.77;15.20;;;9.80;99.90;;;;;;4974034;28;20042;-47
2021/10/12 04:02:30;;;;;;;25.48;15.20;;;9.80;99.90;;;;;;4974104;28;20034;-49
2021/10/12 04:04:55;;;;;;;25.50;15.07;;;9.80;99.90;;;;;;4974012;28;20436;-47
2021/10/12 04:07:21;;;;;;;25.73;14.35;;;9.70;99.90;;;;;;4973686;28;20031;-48
2021/10/12 04:09:46;;;;;;;25.35;15.15;;;9.70;99.90;;;;;;4974095;28;20510;-48
2021/10/12 04:12:12;;;;;;;25.23;15.65;;;9.70;99.90;;;;;;4974002;28;20027;-47
2021/10/12 04:14:38;;;;;;;28.88;15.98;;;9.60;99.90;;;;;;4973326;28;20027;-47
2021/10/12 04:17:03;;;;;;;22.40;16.17;;;9.60;99.90;;;;;;4971894;28;20503;-46
2021/10/12 04:19:29;;;;;;;23.30;15.05;;;9.50;99.90;;;;;;4973749;28;20038;-47
2021/10/12 04:21:54;;;;;;;27.45;16.35;;;9.50;99.90;;;;;;4973689;28;20035;-50
2021/10/12 04:24:20;;;;;;;22.70;15.88;;;9.40;99.90;;;;;;4973704;28;20035;-47
2021/10/12 04:26:45;;;;;;;24.45;16.75;;;9.30;99.90;;;;;;4973832;28;20075;-46
2021/10/12 04:29:11;;;;;;;22.70;15.77;;;9.20;99.90;;;;;;4973742;28;20030;-47
2021/10/12 04:31:36;;;;;;;29.08;18.10;;;9.10;99.90;;;;;;4973759;28;20477;-48
2021/10/12 04:34:02;;;;;;;24.27;16.65;;;9.10;99.90;;;;;;5017378;23;20053;-46
2021/10/12 04:36:27;;;;;;;25.45;15.77;;;9.00;99.90;;;;;;5010501;28;20057;-44
2021/10/12 04:38:53;;;;;;;24.65;17.02;;;9.00;99.90;;;;;;5012683;28;20026;-45
2021/10/12 04:41:19;;;;;;;25.30;17.17;;;8.90;99.90;;;;;;5012257;28;20022;-47
2021/10/12 04:43:44;;;;;;;22.25;16.17;;;8.90;99.90;;;;;;5012189;28;20022;-47
2021/10/12 04:46:10;;;;;;;25.00;16.23;;;8.80;99.90;;;;;;5011882;28;20025;-50
2021/10/12 04:48:35;;;;;;;27.77;17.13;;;8.80;99.90;;;;;;5012099;28;20089;-45
2021/10/12 04:51:01;;;;;;;27.20;17.50;;;8.80;99.90;;;;;;5012158;28;20054;-44
2021/10/12 04:53:26;;;;;;;26.35;16.23;;;8.90;99.90;;;;;;5012030;28;20459;-49
2021/10/12 04:55:52;;;;;;;24.10;16.48;;;8.90;99.90;;;;;;5012204;28;20034;-45
2021/10/12 04:58:18;;;;;;;25.40;14.60;;;9.00;99.90;;;;;;5011248;28;20057;-49
2021/10/12 05:00:43;;;;;;;24.27;14.02;;;9.00;99.90;;;;;;5012020;28;20530;-46
2021/10/12 05:03:09;;;;;;;28.02;16.67;;;9.10;99.90;;;;;;5011836;28;20450;-47
2021/10/12 05:05:35;;;;;;;18.90;14.55;;;9.10;99.90;;;;;;5011564;28;20113;-46
2021/10/12 05:08:00;;;;;;;25.85;15.07;;;9.20;99.90;;;;;;5011111;28;20038;-48
2021/10/12 05:10:26;;;;;;;28.38;15.20;;;9.20;99.90;;;;;;5011841;28;20022;-45
2021/10/12 05:12:52;;;;;;;21.88;14.60;;;9.30;99.90;;;;;;5009891;28;20034;-47
2021/10/12 05:15:23;;;;;;;24.15;15.20;;;9.30;99.90;;;;;;5011651;28;20547;-45
2021/10/12 05:17:49;;;;;;;24.13;15.98;;;9.30;99.90;;;;;;5011045;28;20021;-49
2021/10/12 05:20:15;;;;;;;26.70;16.25;;;9.30;99.90;;;;;;5011580;28;20109;-45
2021/10/12 05:22:41;;;;;;;24.70;16.23;;;9.30;99.90;;;;;;5011583;28;20026;-48
2021/10/12 05:25:07;;;;;;;27.00;16.77;;;9.30;99.90;;;;;;5011439;28;20377;-48
2021/10/12 05:27:35;;;;;;;28.30;17.25;;;9.20;99.90;;;;;;5009842;28;20026;-49
2021/10/12 05:30:03;;;;;;;26.02;16.75;;;9.30;99.90;;;;;;5010385;28;20025;-49
2021/10/12 05:32:28;;;;;;;27.27;17.05;;;9.30;99.90;;;;;;5011450;28;20509;-47
2021/10/12 05:34:56;;;;;;;27.75;17.25;;;9.30;99.90;;;;;;5011651;28;20037;-48
2021/10/12 05:37:22;;;;;;;25.25;16.65;;;9.30;99.90;;;;;;5009790;28;20129;-46
2021/10/12 05:39:47;;;;;;;24.65;16.27;;;9.30;99.90;;;;;;5011412;28;20109;-46
2021/10/12 05:42:13;;;;;;;25.00;16.17;;;9.30;99.90;;;;;;5011531;28;20026;-48
2021/10/12 05:44:38;;;;;;;26.55;17.45;;;9.30;99.90;;;;;;5011482;28;20032;-45
2021/10/12 05:47:04;;;;;;;28.80;16.85;;;9.30;99.90;;;;;;5010909;28;20561;-47
2021/10/12 05:49:29;;;;;;;22.08;15.25;;;9.30;99.90;;;;;;5011589;28;20033;-49
2021/10/12 05:51:55;;;;;;;26.05;14.98;;;9.20;99.90;;;;;;5011558;28;20053;-47
2021/10/12 05:54:24;;;;;;;24.40;15.27;;;9.20;99.90;;;;;;5011474;28;20084;-45
2021/10/12 05:57:05;;;;;;;24.67;15.70;;;9.30;99.90;;;;;;5011124;28;20080;-45
2021/10/12 05:59:32;;;;;;;24.45;14.30;;;9.40;99.90;;;;;;5011690;28;20387;-45
2021/10/12 06:01:58;;;;;;;29.33;14.55;;;9.40;99.90;;;;;;5011398;28;20114;-48
2021/10/12 06:04:24;;;;;;;22.30;15.02;;;9.40;99.90;;;;;;5011399;28;20022;-48
2021/10/12 06:06:49;;;;;;;22.42;14.07;;;9.40;99.90;;;;;;5010691;28;20028;-52
2021/10/12 06:09:15;;;;;;;25.85;13.32;;;9.30;99.90;;;;;;5011375;28;20495;-45
2021/10/12 06:11:40;;;;;;;27.42;14.05;;;9.30;99.90;;;;;;5011006;28;20030;-47
2021/10/12 06:14:06;;;;;;;23.42;12.57;;;9.40;99.90;;;;;;5010291;28;20455;-51
2021/10/12 06:16:31;;;;;;;21.73;12.93;;;9.40;99.90;;;;;;5010620;28;20033;-46
2021/10/12 06:18:57;;;;;;;25.10;13.98;;;9.50;99.90;;;;;;5011597;28;20029;-43
2021/10/12 06:21:22;;;;;;;17.77;13.13;;;9.50;99.90;;;;;;5011510;28;20062;-53
2021/10/12 06:23:48;;;;;;;20.83;14.07;;;9.40;99.90;;;;;;5011251;28;20506;-48
2021/10/12 06:26:14;;;;;;;20.80;13.52;;;9.50;99.90;;;;;;5009891;28;20022;-46
2021/10/12 06:28:39;;;;;;;19.80;13.43;;;9.40;99.90;;;;;;5012852;28;20032;-45
2021/10/12 06:31:06;;;;;;;18.15;13.27;;;9.40;99.90;;;;;;5013703;28;20422;-48
2021/10/12 06:33:33;;;;;;;21.98;12.77;;;9.50;99.90;;;;;;5013269;28;20030;-48
2021/10/12 06:35:58;;;;;;;19.75;13.93;;;9.50;99.90;;;;;;5011964;28;20112;-47
2021/10/12 06:38:24;;;;;;;22.10;13.70;;;9.50;99.90;;;;;;5010902;28;20030;-49
2021/10/12 06:40:49;;;;;;;19.70;13.32;;;9.50;99.90;;;;;;5014935;28;20030;-57
2021/10/12 06:43:15;;;;;;;22.80;14.38;;;9.50;99.90;;;;;;5013471;28;20022;-51
2021/10/12 06:45:40;;;;;;;19.58;13.30;;;9.60;99.90;;;;;;5014426;28;20088;-49
2021/10/12 06:48:06;;;;;;;21.80;14.00;;;9.60;99.90;;;;;;5012624;28;20072;-46
2021/10/12 06:50:32;;;;;;;26.25;12.48;;;9.70;99.90;;;;;;5014475;28;20022;-56
2021/10/12 06:52:57;;;;;;;28.08;14.73;;;9.70;99.90;;;;;;5011790;28;20053;-42
2021/10/12 06:55:23;;;;;;;17.52;12.88;;;9.70;99.90;;;;;;5001032;28;20447;-48
2021/10/12 06:57:49;;;;;;;19.38;12.38;;;9.70;99.90;;;;;;4993035;28;20027;-49
2021/10/12 07:00:16;;;;;;;23.00;12.55;;;9.70;99.90;;;;;;4994586;28;20073;-45
2021/10/12 07:02:45;;;;;;;15.90;12.40;;;9.70;99.90;;;;;;4996982;28;20051;-43
2021/10/12 07:05:12;;;;;;;26.08;13.43;;;9.80;99.90;;;;;;5006651;28;20066;-46
2021/10/12 07:07:38;;;;;;;22.38;13.07;;;9.80;99.90;;;;;;4993919;28;20121;-48
2021/10/12 07:10:06;;;;;;;20.65;12.68;;;9.80;99.90;;;;;;4994561;28;20446;-51
2021/10/12 07:12:32;;;;;;;23.75;14.02;;;9.80;99.90;;;;;;4993200;28;20033;-49
2021/10/12 07:14:58;;;;;;;25.38;13.95;;;9.80;99.90;;;;;;4994502;28;20585;-46
2021/10/12 07:17:23;;;;;;;21.13;13.93;;;9.80;99.90;;;;;;4993732;28;20414;-48
2021/10/12 07:19:49;;;;;;;23.27;13.63;;;9.90;99.90;;;;;;5000786;28;20026;-44
2021/10/12 07:22:14;;;;;;;26.67;13.55;;;9.80;99.90;;;;;;5013789;28;20021;-48
2021/10/12 07:24:40;;;;;;;19.50;13.30;;;9.80;99.90;;;;;;5010390;28;20026;-48
2021/10/12 07:27:08;;;;;;;22.65;14.25;;;9.70;99.90;;;;;;5012356;28;20426;-49
2021/10/12 07:29:33;;;;;;;20.23;13.10;;;9.70;99.90;;;;;;4994004;28;20030;-46
2021/10/12 07:31:59;;;;;;;17.85;12.65;;;9.70;99.90;;;;;;5001744;28;20030;-46
2021/10/12 07:34:24;;;;;;;20.90;13.80;;;9.70;99.90;;;;;;4993797;28;20092;-47
2021/10/12 07:36:50;;;;;;;16.50;13.38;;;9.70;99.90;;;;;;4993265;28;20022;-45
2021/10/12 07:39:15;;;;;;;22.40;12.48;;;9.70;99.90;;;;;;4993803;28;20034;-46
2021/10/12 07:41:41;;;;;;;26.05;12.85;;;9.80;99.90;;;;;;4993634;28;20446;-47
2021/10/12 07:44:07;;;;;;;16.77;12.15;;;9.80;99.90;;;;;;4993666;28;20030;-48
2021/10/12 07:46:33;;;;;;;22.42;13.63;;;9.90;99.90;;;;;;4992857;28;20030;-48
2021/10/12 07:48:58;;;;;;;23.55;13.05;;;9.90;99.90;;;;;;4993885;28;20025;-48
2021/10/12 07:51:25;;;;;;;20.05;13.57;;;9.90;99.90;;;;;;4991492;28;20627;-48
2021/10/12 07:53:51;;;;;;;20.85;13.10;;;9.80;99.90;;;;;;4993647;28;20550;-47
2021/10/12 07:56:35;;;;;;;18.30;11.95;;;9.80;99.90;;;;;;4992992;28;20030;-47
2021/10/12 07:59:06;;;;;;;17.95;12.63;;;9.90;99.90;;;;;;4991880;28;20019;-50
2021/10/12 08:01:33;;;;;;;24.23;13.85;;;10.00;99.90;;;;;;4993462;28;20031;-47
2021/10/12 08:03:59;;;;;;;25.90;13.23;;;10.10;99.90;;;;;;4993378;28;20023;-47
2021/10/12 08:06:25;;;;;;;22.35;13.15;;;10.10;99.90;;;;;;4992777;28;20049;-45
2021/10/12 08:08:50;;;;;;;20.00;14.00;;;10.10;99.90;;;;;;4993407;28;20491;-46
2021/10/12 08:11:17;;;;;;;22.50;13.15;;;10.10;99.90;;;;;;4993391;28;20030;-42
2021/10/12 08:13:43;;;;;;;23.48;15.07;;;10.10;99.90;;;;;;4993295;28;20045;-45
2021/10/12 08:16:09;;;;;;;33.50;14.80;;;10.00;99.90;;;;;;4992929;28;20467;-48
2021/10/12 08:18:36;;;;;;;27.00;15.93;;;10.10;99.90;;;;;;4993145;28;20015;-46
2021/10/12 08:21:01;;;;;;;23.98;14.00;;;10.10;99.90;;;;;;4993155;28;20026;-49
2021/10/12 08:23:27;;;;;;;23.73;14.88;;;10.10;99.90;;;;;;4992979;28;20022;-49
2021/10/12 08:25:53;;;;;;;30.35;20.85;;;10.10;99.90;;;;;;4993553;28;20030;-47
2021/10/12 08:28:18;;;;;;;27.13;16.08;;;10.20;99.90;;;;;;4992442;28;20345;-49
2021/10/12 08:30:45;;;;;;;35.55;22.58;;;10.20;99.90;;;;;;4992913;28;20026;-48
2021/10/12 08:33:10;;;;;;;16.30;13.30;;;10.30;99.90;;;;;;4991550;28;20069;-46
2021/10/12 08:35:36;;;;;;;23.70;14.32;;;10.40;99.90;;;;;;4992955;28;20124;-51
2021/10/12 08:38:01;;;;;;;19.77;13.13;;;10.50;99.90;;;;;;4992089;28;20427;-47
2021/10/12 08:40:29;;;;;;;22.05;11.73;;;10.60;99.90;;;;;;4992547;28;20458;-48
2021/10/12 08:42:56;;;;;;;19.67;11.75;;;10.70;99.90;;;;;;4992519;28;20026;-48
2021/10/12 08:45:22;;;;;;;20.02;11.63;;;10.80;99.90;;;;;;4992487;28;20036;-46
2021/10/12 08:47:48;;;;;;;18.60;11.57;;;10.80;99.90;;;;;;4992154;28;20022;-48
2021/10/12 08:50:17;;;;;;;15.57;10.90;;;10.90;99.90;;;;;;4992626;28;20089;-53
2021/10/12 08:52:47;;;;;;;20.38;11.45;;;10.90;99.90;;;;;;4992358;28;20064;-49
2021/10/12 08:55:13;;;;;;;19.50;10.40;;;10.80;99.90;;;;;;4992486;28;20049;-50
2021/10/12 08:57:41;;;;;;;17.60;10.35;;;10.80;99.90;;;;;;4990124;28;20062;-50
2021/10/12 09:00:15;;;;;;;18.15;10.10;;;10.80;99.90;;;;;;4992441;28;20421;-46
2021/10/12 09:03:17;;;;;;;16.77;10.95;;;10.80;99.90;;;;;;4992234;28;20066;-49
2021/10/12 09:06:03;;;;;;;20.67;10.70;;;10.90;99.90;;;;;;4992406;28;20052;-54
2021/10/12 09:08:35;;;;;;;19.67;10.82;;;10.90;99.90;;;;;;4992286;28;20047;-48
2021/10/12 09:11:05;;;;;;;25.05;11.10;;;10.90;99.90;;;;;;4996151;28;20399;-50
2021/10/12 09:13:44;;;;;;;17.17;10.77;;;10.90;99.90;;;;;;4994606;28;20382;-46
2021/10/12 09:16:11;;;;;;;21.80;11.05;;;10.90;99.90;;;;;;4992143;28;20102;-48
2021/10/12 09:18:54;;;;;;;20.48;11.05;;;10.90;99.90;;;;;;4991940;28;20034;-52
2021/10/12 09:21:37;;;;;;;18.10;10.70;;;10.90;99.90;;;;;;4991964;28;20036;-51
2021/10/12 09:24:11;;;;;;;17.63;10.15;;;11.00;99.90;;;;;;4998104;28;20037;-50
2021/10/12 09:26:43;;;;;;;15.27;8.77;;;11.00;99.90;;;;;;5008622;28;20088;-43
2021/10/12 09:29:14;;;;;;;14.63;8.27;;;11.10;99.90;;;;;;5001250;28;20018;-47
2021/10/12 09:31:43;;;;;;;16.67;8.95;;;11.00;99.90;;;;;;5012281;28;20026;-44
2021/10/12 09:34:10;;;;;;;15.45;9.65;;;11.10;99.90;;;;;;4998402;28;20034;-48
2021/10/12 09:36:44;;;;;;;13.10;9.43;;;11.10;99.90;;;;;;4994306;28;20040;-62
2021/10/12 09:39:14;;;;;;;17.35;9.18;;;11.10;99.90;;;;;;5001377;28;20076;-45
2021/10/12 09:41:42;;;;;;;11.88;7.97;;;11.20;99.90;;;;;;5002370;28;20467;-46
2021/10/12 09:44:17;;;;;;;14.45;8.48;;;11.30;99.90;;;;;;4991409;28;20088;-52
2021/10/12 09:46:51;;;;;;;;;;;11.30;99.90;;;;;;4991143;28;20097;-46
2021/10/12 09:49:25;;;;;;;14.55;7.68;;;11.30;99.90;;;;;;4991461;28;19905;-46
2021/10/12 09:51:57;;;;;;;16.23;6.80;;;11.40;99.90;;;;;;4991348;28;20391;-47
2021/10/12 09:54:24;;;;;;;12.25;5.50;;;11.40;99.90;;;;;;4991331;28;20129;-48
2021/10/12 09:56:50;;;;;;;23.75;7.07;;;11.40;99.90;;;;;;4990754;28;20488;-49
2021/10/12 09:59:17;;;;;;;9.23;5.53;;;11.50;99.90;;;;;;5004872;28;20053;-48
2021/10/12 10:01:45;;;;;;;8.85;5.40;;;11.60;99.90;;;;;;5009292;28;20505;-48
2021/10/12 10:04:12;;;;;;;13.13;5.78;;;11.60;99.90;;;;;;5009291;28;20120;-49
2021/10/12 10:06:41;;;;;;;13.30;5.75;;;11.70;99.90;;;;;;5006970;28;20447;-58
2021/10/12 10:09:08;;;;;;;6.00;4.80;;;11.80;99.90;;;;;;4998406;28;20025;-50
2021/10/12 10:11:44;;;;;;;13.68;5.30;;;11.80;99.90;;;;;;5003440;28;20037;-46
2021/10/12 10:14:11;;;;;;;7.05;4.75;;;11.80;99.90;;;;;;5001909;28;20084;-48
2021/10/12 10:16:42;;;;;;;8.32;4.60;;;11.90;99.90;;;;;;4999407;28;20113;-48
2021/10/12 10:19:21;;;;;;;8.90;5.43;;;12.00;99.90;;;;;;4991058;28;20110;-47
2021/10/12 10:21:47;;;;;;;8.05;4.53;;;12.10;99.90;;;;;;4990825;28;20041;-52
2021/10/12 10:24:22;;;;;;;10.35;4.20;;;12.10;99.90;;;;;;4991160;28;20074;-53
2021/10/12 10:26:50;;;;;;;10.18;3.85;;;12.10;99.90;;;;;;5006396;28;20462;-51
2021/10/12 10:29:24;;;;;;;4.43;3.47;;;12.30;99.90;;;;;;5010244;28;20021;-46
2021/10/12 10:31:54;;;;;;;7.00;3.17;;;12.20;99.90;;;;;;5009940;28;20176;-50
2021/10/12 10:34:41;;;;;;;8.15;3.47;;;12.30;99.90;;;;;;5008712;28;20384;-48
2021/10/12 10:37:15;;;;;;;7.07;2.95;;;12.40;99.90;;;;;;5005173;23;20431;-49
2021/10/12 10:39:48;;;;;;;3.50;2.88;;;12.30;99.90;;;;;;4990046;28;20028;-52
2021/10/12 10:42:25;;;;;;;13.93;4.40;;;12.40;99.90;;;;;;4989982;28;20018;-51
2021/10/12 10:45:00;;;;;;;10.68;3.20;;;12.40;99.90;;;;;;4989748;28;20039;-51
2021/10/12 10:48:02;;;;;;;5.28;2.40;;;12.40;99.90;;;;;;4977975;28;20031;-50
2021/10/12 10:50:29;;;;;;;5.68;3.03;;;12.30;99.90;;;;;;4984002;28;20066;-46
2021/10/12 10:52:57;;;;;;;9.38;2.58;;;12.40;99.90;;;;;;4990679;28;20025;-49
2021/10/12 10:55:24;;;;;;;6.15;2.30;;;12.40;99.90;;;;;;4988686;28;20034;-50
2021/10/12 10:58:04;;;;;;;12.32;2.72;;;12.30;99.90;;;;;;4987826;28;20565;-49
2021/10/12 11:00:44;;;;;;;7.18;3.25;;;12.30;99.90;;;;;;4971996;28;20415;-47
2021/10/12 11:03:25;;;;;;;6.97;2.92;;;12.30;99.90;;;;;;4978389;28;20101;-43
2021/10/12 11:05:52;;;;;;;6.53;2.97;;;12.30;99.90;;;;;;4979582;28;20027;-46
2021/10/12 11:08:29;;;;;;;7.53;2.83;;;12.30;99.90;;;;;;4973328;28;20092;-48
2021/10/12 11:10:58;;;;;;;6.25;3.40;;;12.40;99.90;;;;;;4968384;28;20018;-44
2021/10/12 11:13:44;;;;;;;4.45;3.67;;;12.30;99.90;;;;;;4983422;28;20023;-41
2021/10/12 11:16:12;;;;;;;9.88;3.38;;;12.20;99.90;;;;;;4983171;28;20031;-52
2021/10/12 11:18:40;;;;;;;10.48;4.30;;;12.30;99.90;;;;;;4995887;28;20038;-54
2021/10/12 11:21:08;;;;;;;8.73;3.17;;;12.20;99.90;;;;;;4993878;28;20038;-55
2021/10/12 11:23:41;;;;;;;5.72;3.75;;;12.30;99.90;;;;;;4982994;28;20046;-54
2021/10/12 11:26:11;;;;;;;4.88;3.15;;;12.20;99.90;;;;;;4986991;28;20421;-46
2021/10/12 11:28:38;;;;;;;8.30;3.85;;;12.20;99.90;;;;;;4988542;28;20030;-51
2021/10/12 11:31:12;;;;;;;8.40;3.50;;;12.20;99.90;;;;;;4987771;28;20026;-54
2021/10/12 11:33:43;;;;;;;8.32;3.85;;;12.20;99.90;;;;;;4987778;28;20353;-50
2021/10/12 11:36:10;;;;;;;4.75;3.30;;;12.20;99.90;;;;;;4975529;28;20583;-52
2021/10/12 11:38:50;;;;;;;7.28;2.90;;;12.20;99.90;;;;;;4986793;28;20057;-54
2021/10/12 11:41:30;;;;;;;8.32;3.00;;;12.20;99.90;;;;;;4986287;28;20030;-53
2021/10/12 11:43:57;;;;;;;8.40;3.67;;;12.20;99.90;;;;;;4986123;28;20046;-51
2021/10/12 11:46:26;;;;;;;9.82;2.90;;;12.20;99.90;;;;;;4985328;28;20102;-54
2021/10/12 11:48:51;;;;;;;3.88;3.20;;;12.20;99.90;;;;;;4987343;28;20298;-57
2021/10/12 11:51:25;;;;;;;5.63;3.47;;;12.40;99.90;;;;;;4991929;28;20029;-49
2021/10/12 11:53:53;;;;;;;9.50;3.25;;;12.40;99.90;;;;;;4992651;28;20109;-58
2021/10/12 11:56:20;;;;;;;5.85;3.50;;;12.30;99.90;;;;;;4991917;28;20018;-55
2021/10/12 11:58:47;;;;;;;5.15;3.75;;;12.40;99.90;;;;;;4992803;28;20411;-53
2021/10/12 12:01:24;;;;;;;4.30;2.80;;;12.50;99.90;;;;;;4989670;28;20483;-56
2021/10/12 12:03:49;;;;;;;7.95;2.90;;;12.50;99.90;;;;;;4992810;28;20030;-57
2021/10/12 12:06:22;;;;;;;8.02;2.80;;;12.50;99.90;;;;;;4993044;28;20459;-49
2021/10/12 12:08:47;;;;;;;4.60;2.60;;;12.50;99.90;;;;;;4992425;28;20038;-53
2021/10/12 12:11:15;;;;;;;4.85;2.65;;;12.40;99.90;;;;;;4993585;28;20507;-48
2021/10/12 12:13:41;;;;;;;6.15;3.05;;;12.50;99.90;;;;;;4993283;28;20026;-50
2021/10/12 12:16:07;;;;;;;8.02;2.95;;;12.40;99.90;;;;;;4975239;28;20031;-50
2021/10/12 12:18:38;;;;;;;7.80;2.78;;;12.50;99.90;;;;;;4977662;28;20073;-50
2021/10/12 12:21:04;;;;;;;7.53;3.53;;;12.60;99.90;;;;;;4992757;28;20029;-47
2021/10/12 12:23:47;;;;;;;5.45;3.28;;;12.60;99.90;;;;;;4992373;28;20026;-51
2021/10/12 12:26:24;;;;;;;7.80;3.30;;;12.60;99.90;;;;;;4975411;28;20023;-52
2021/10/12 12:28:50;;;;;;;8.23;3.45;;;12.50;99.90;;;;;;4991037;28;20026;-52
2021/10/12 12:31:27;;;;;;;4.32;2.67;;;12.50;99.90;;;;;;4991803;28;20077;-49
2021/10/12 12:33:55;;;;;;;10.52;2.83;;;12.50;99.90;;;;;;4973395;28;20106;-52
2021/10/12 12:36:32;;;;;;;9.27;2.78;;;12.50;99.90;;;;;;4986035;28;20053;-54
2021/10/12 12:39:09;;;;;;;6.38;3.15;;;12.50;99.90;;;;;;4992565;28;20373;-53
2021/10/12 12:41:40;;;;;;;12.20;3.05;;;12.40;99.90;;;;;;4992597;28;20026;-55